sensor_id;sensor_type;location;lat;lon;timestamp;temperature;humidity
41720;DHT22;27405;53.316;-6.294;2022-09-06T00:01:18;16.10;99.90
41720;DHT22;27405;53.316;-6.294;2022-09-06T00:03:44;16.10;99.90
41720;DHT22;27405;53.316;-6.294;2022-09-06T00:06:12;16.00;99.90
41720;DHT22;27405;53.316;-6.294;2022-09-06T00:08:39;16.00;99.90
41720;DHT22;27405;53.316;-6.294;2022-09-06T00:11:05;16.00;99.90
41720;DHT22;27405;53.316;-6.294;2022-09-06T00:13:32;16.00;99.90
41720;DHT22;27405;53.316;-6.294;2022-09-06T00:16:09;16.00;99.90
41720;DHT22;27405;53.316;-6.294;2022-09-06T00:18:35;16.00;99.90
41720;DHT22;27405;53.316;-6.294;2022-09-06T00:21:02;16.00;99.90
41720;DHT22;27405;53.316;-6.294;2022-09-06T00:23:28;16.00;99.90
41720;DHT22;27405;53.316;-6.294;2022-09-06T00:26:02;16.10;99.90
41720;DHT22;27405;53.316;-6.294;2022-09-06T00:28:28;16.20;99.90
41720;DHT22;27405;53.316;-6.294;2022-09-06T00:30:53;16.20;99.90
41720;DHT22;27405;53.316;-6.294;2022-09-06T00:33:19;16.20;99.90
41720;DHT22;27405;53.316;-6.294;2022-09-06T00:35:45;16.20;99.90
41720;DHT22;27405;53.316;-6.294;2022-09-06T00:38:11;16.20;99.90
41720;DHT22;27405;53.316;-6.294;2022-09-06T00:40:37;16.20;99.90
41720;DHT22;27405;53.316;-6.294;2022-09-06T00:43:03;16.20;99.90
41720;DHT22;27405;53.316;-6.294;2022-09-06T00:45:29;16.30;99.90
41720;DHT22;27405;53.316;-6.294;2022-09-06T00:47:57;16.30;99.90
41720;DHT22;27405;53.316;-6.294;2022-09-06T00:50:24;16.30;99.90
41720;DHT22;27405;53.316;-6.294;2022-09-06T00:52:51;16.40;99.90
41720;DHT22;27405;53.316;-6.294;2022-09-06T00:55:19;16.40;99.90
41720;DHT22;27405;53.316;-6.294;2022-09-06T00:57:46;16.40;99.90
41720;DHT22;27405;53.316;-6.294;2022-09-06T01:00:16;16.40;99.90
41720;DHT22;27405;53.316;-6.294;2022-09-06T01:02:42;16.40;99.90
41720;DHT22;27405;53.316;-6.294;2022-09-06T01:05:08;16.30;99.90
41720;DHT22;27405;53.316;-6.294;2022-09-06T01:13:26;16.20;99.90
41720;DHT22;27405;53.316;-6.294;2022-09-06T01:26:47;16.10;99.90
41720;DHT22;27405;53.316;-6.294;2022-09-06T01:29:36;16.00;99.90
41720;DHT22;27405;53.316;-6.294;2022-09-06T01:32:16;16.00;99.90
41720;DHT22;27405;53.316;-6.294;2022-09-06T01:34:51;16.00;99.90
41720;DHT22;27405;53.316;-6.294;2022-09-06T01:37:19;16.00;99.90
41720;DHT22;27405;53.316;-6.294;2022-09-06T01:39:47;16.00;99.90
41720;DHT22;27405;53.316;-6.294;2022-09-06T01:42:18;16.00;99.90
41720;DHT22;27405;53.316;-6.294;2022-09-06T01:45:08;15.90;99.90
41720;DHT22;27405;53.316;-6.294;2022-09-06T01:47:37;15.90;99.90
41720;DHT22;27405;53.316;-6.294;2022-09-06T01:50:26;15.90;99.90
41720;DHT22;27405;53.316;-6.294;2022-09-06T02:01:29;16.10;99.90
41720;DHT22;27405;53.316;-6.294;2022-09-06T02:04:25;16.10;99.90
41720;DHT22;27405;53.316;-6.294;2022-09-06T02:07:00;16.20;99.90
41720;DHT22;27405;53.316;-6.294;2022-09-06T02:09:32;16.20;99.90
41720;DHT22;27405;53.316;-6.294;2022-09-06T02:12:01;16.20;99.90
41720;DHT22;27405;53.316;-6.294;2022-09-06T02:14:46;16.30;99.90
41720;DHT22;27405;53.316;-6.294;2022-09-06T02:17:16;16.30;99.90
41720;DHT22;27405;53.316;-6.294;2022-09-06T02:20:03;16.40;99.90
41720;DHT22;27405;53.316;-6.294;2022-09-06T02:22:33;16.40;99.90
41720;DHT22;27405;53.316;-6.294;2022-09-06T02:25:01;16.40;99.90
41720;DHT22;27405;53.316;-6.294;2022-09-06T02:27:28;16.40;99.90
41720;DHT22;27405;53.316;-6.294;2022-09-06T02:29:54;16.40;99.90
41720;DHT22;27405;53.316;-6.294;2022-09-06T02:32:20;16.40;99.90
41720;DHT22;27405;53.316;-6.294;2022-09-06T02:34:49;16.30;99.90
41720;DHT22;27405;53.316;-6.294;2022-09-06T02:37:15;16.30;99.90
41720;DHT22;27405;53.316;-6.294;2022-09-06T02:39:41;16.30;99.90
41720;DHT22;27405;53.316;-6.294;2022-09-06T02:42:09;16.40;99.90
41720;DHT22;27405;53.316;-6.294;2022-09-06T02:44:36;16.30;99.90
41720;DHT22;27405;53.316;-6.294;2022-09-06T02:47:01;16.30;99.90
41720;DHT22;27405;53.316;-6.294;2022-09-06T02:49:28;16.30;99.90
41720;DHT22;27405;53.316;-6.294;2022-09-06T02:51:54;16.30;99.90
41720;DHT22;27405;53.316;-6.294;2022-09-06T02:54:21;16.30;99.90
41720;DHT22;27405;53.316;-6.294;2022-09-06T02:56:47;16.30;99.90
41720;DHT22;27405;53.316;-6.294;2022-09-06T02:59:12;16.20;99.90
41720;DHT22;27405;53.316;-6.294;2022-09-06T03:01:38;16.20;99.90
41720;DHT22;27405;53.316;-6.294;2022-09-06T03:04:04;16.20;99.90
41720;DHT22;27405;53.316;-6.294;2022-09-06T03:06:30;16.20;99.90
41720;DHT22;27405;53.316;-6.294;2022-09-06T03:08:55;16.20;99.90
41720;DHT22;27405;53.316;-6.294;2022-09-06T03:11:21;16.20;99.90
41720;DHT22;27405;53.316;-6.294;2022-09-06T03:13:47;16.20;99.90
41720;DHT22;27405;53.316;-6.294;2022-09-06T03:16:15;16.20;99.90
41720;DHT22;27405;53.316;-6.294;2022-09-06T03:18:41;16.10;99.90
41720;DHT22;27405;53.316;-6.294;2022-09-06T03:21:07;16.10;99.90
41720;DHT22;27405;53.316;-6.294;2022-09-06T03:23:32;16.10;99.90
41720;DHT22;27405;53.316;-6.294;2022-09-06T03:25:58;16.10;99.90
41720;DHT22;27405;53.316;-6.294;2022-09-06T03:28:24;16.10;99.90
41720;DHT22;27405;53.316;-6.294;2022-09-06T03:30:51;16.10;99.90
41720;DHT22;27405;53.316;-6.294;2022-09-06T03:33:18;16.10;99.90
41720;DHT22;27405;53.316;-6.294;2022-09-06T03:35:50;16.10;99.90
41720;DHT22;27405;53.316;-6.294;2022-09-06T03:38:16;16.10;99.90
41720;DHT22;27405;53.316;-6.294;2022-09-06T03:40:44;16.10;99.90
41720;DHT22;27405;53.316;-6.294;2022-09-06T03:43:10;16.10;99.90
41720;DHT22;27405;53.316;-6.294;2022-09-06T03:45:36;16.20;99.90
41720;DHT22;27405;53.316;-6.294;2022-09-06T03:48:01;16.20;99.90
41720;DHT22;27405;53.316;-6.294;2022-09-06T03:50:27;16.20;99.90
41720;DHT22;27405;53.316;-6.294;2022-09-06T03:52:53;16.20;99.90
41720;DHT22;27405;53.316;-6.294;2022-09-06T03:55:18;16.20;99.90
41720;DHT22;27405;53.316;-6.294;2022-09-06T03:57:44;16.20;99.90
41720;DHT22;27405;53.316;-6.294;2022-09-06T04:00:12;16.20;99.90
41720;DHT22;27405;53.316;-6.294;2022-09-06T04:02:38;16.30;99.90
41720;DHT22;27405;53.316;-6.294;2022-09-06T04:05:04;16.30;99.90
41720;DHT22;27405;53.316;-6.294;2022-09-06T04:07:31;16.30;99.90
41720;DHT22;27405;53.316;-6.294;2022-09-06T04:09:56;16.10;99.90
41720;DHT22;27405;53.316;-6.294;2022-09-06T04:12:22;16.10;99.90
41720;DHT22;27405;53.316;-6.294;2022-09-06T04:14:48;16.10;99.90
41720;DHT22;27405;53.316;-6.294;2022-09-06T04:17:14;16.00;99.90
41720;DHT22;27405;53.316;-6.294;2022-09-06T04:19:39;16.00;99.90
41720;DHT22;27405;53.316;-6.294;2022-09-06T04:22:05;16.00;99.90
41720;DHT22;27405;53.316;-6.294;2022-09-06T04:24:31;16.00;99.90
41720;DHT22;27405;53.316;-6.294;2022-09-06T04:26:56;15.90;99.90
41720;DHT22;27405;53.316;-6.294;2022-09-06T04:29:22;15.90;99.90
41720;DHT22;27405;53.316;-6.294;2022-09-06T04:31:48;15.80;99.90
41720;DHT22;27405;53.316;-6.294;2022-09-06T04:34:14;15.70;99.90
41720;DHT22;27405;53.316;-6.294;2022-09-06T04:36:41;15.70;99.90
41720;DHT22;27405;53.316;-6.294;2022-09-06T04:39:07;15.60;99.90
41720;DHT22;27405;53.316;-6.294;2022-09-06T04:41:32;15.60;99.90
41720;DHT22;27405;53.316;-6.294;2022-09-06T04:43:58;15.50;99.90
41720;DHT22;27405;53.316;-6.294;2022-09-06T04:46:28;15.50;99.90
41720;DHT22;27405;53.316;-6.294;2022-09-06T04:48:55;15.50;99.90
41720;DHT22;27405;53.316;-6.294;2022-09-06T04:51:22;15.50;99.90
41720;DHT22;27405;53.316;-6.294;2022-09-06T04:53:48;15.50;99.90
41720;DHT22;27405;53.316;-6.294;2022-09-06T04:56:16;15.50;99.90
41720;DHT22;27405;53.316;-6.294;2022-09-06T04:58:44;15.50;99.90
41720;DHT22;27405;53.316;-6.294;2022-09-06T05:01:10;15.50;99.90
41720;DHT22;27405;53.316;-6.294;2022-09-06T05:06:10;15.60;99.90
41720;DHT22;27405;53.316;-6.294;2022-09-06T05:08:40;15.60;99.90
41720;DHT22;27405;53.316;-6.294;2022-09-06T05:11:07;15.60;99.90
41720;DHT22;27405;53.316;-6.294;2022-09-06T05:13:33;15.60;99.90
41720;DHT22;27405;53.316;-6.294;2022-09-06T05:16:00;15.70;99.90
41720;DHT22;27405;53.316;-6.294;2022-09-06T05:18:26;15.70;99.90
41720;DHT22;27405;53.316;-6.294;2022-09-06T05:20:53;15.70;99.90
41720;DHT22;27405;53.316;-6.294;2022-09-06T05:23:20;15.70;99.90
41720;DHT22;27405;53.316;-6.294;2022-09-06T05:25:46;15.80;99.90
41720;DHT22;27405;53.316;-6.294;2022-09-06T05:28:12;15.80;99.90
41720;DHT22;27405;53.316;-6.294;2022-09-06T05:30:37;15.80;99.90
41720;DHT22;27405;53.316;-6.294;2022-09-06T05:33:03;15.80;99.90
41720;DHT22;27405;53.316;-6.294;2022-09-06T05:35:29;15.80;99.90
41720;DHT22;27405;53.316;-6.294;2022-09-06T05:37:55;15.80;99.90
41720;DHT22;27405;53.316;-6.294;2022-09-06T05:40:20;15.80;99.90
41720;DHT22;27405;53.316;-6.294;2022-09-06T05:42:46;15.70;99.90
41720;DHT22;27405;53.316;-6.294;2022-09-06T05:45:12;15.70;99.90
41720;DHT22;27405;53.316;-6.294;2022-09-06T05:47:37;15.70;99.90
41720;DHT22;27405;53.316;-6.294;2022-09-06T05:50:05;15.70;99.90
41720;DHT22;27405;53.316;-6.294;2022-09-06T05:52:31;15.70;99.90
41720;DHT22;27405;53.316;-6.294;2022-09-06T05:54:59;15.70;99.90
41720;DHT22;27405;53.316;-6.294;2022-09-06T05:57:25;15.70;99.90
41720;DHT22;27405;53.316;-6.294;2022-09-06T05:59:51;15.70;99.90
41720;DHT22;27405;53.316;-6.294;2022-09-06T06:02:18;15.70;99.90
41720;DHT22;27405;53.316;-6.294;2022-09-06T06:04:45;15.70;99.90
41720;DHT22;27405;53.316;-6.294;2022-09-06T06:07:10;15.70;99.90
41720;DHT22;27405;53.316;-6.294;2022-09-06T06:09:36;15.70;99.90
41720;DHT22;27405;53.316;-6.294;2022-09-06T06:12:02;15.70;99.90
41720;DHT22;27405;53.316;-6.294;2022-09-06T06:14:28;15.70;99.90
41720;DHT22;27405;53.316;-6.294;2022-09-06T06:16:53;15.70;99.90
41720;DHT22;27405;53.316;-6.294;2022-09-06T06:19:19;15.70;99.90
41720;DHT22;27405;53.316;-6.294;2022-09-06T06:21:45;15.80;99.90
41720;DHT22;27405;53.316;-6.294;2022-09-06T06:24:10;15.80;99.90
41720;DHT22;27405;53.316;-6.294;2022-09-06T06:26:36;15.80;99.90
41720;DHT22;27405;53.316;-6.294;2022-09-06T06:29:03;15.80;99.90
41720;DHT22;27405;53.316;-6.294;2022-09-06T06:31:32;15.90;99.90
41720;DHT22;27405;53.316;-6.294;2022-09-06T06:33:58;15.90;99.90
41720;DHT22;27405;53.316;-6.294;2022-09-06T06:36:27;15.90;99.90
41720;DHT22;27405;53.316;-6.294;2022-09-06T06:38:56;16.00;99.90
41720;DHT22;27405;53.316;-6.294;2022-09-06T06:41:24;16.00;99.90
41720;DHT22;27405;53.316;-6.294;2022-09-06T06:43:53;16.00;99.90
41720;DHT22;27405;53.316;-6.294;2022-09-06T06:46:20;16.00;99.90
41720;DHT22;27405;53.316;-6.294;2022-09-06T06:48:46;16.00;99.90
41720;DHT22;27405;53.316;-6.294;2022-09-06T06:51:16;16.00;99.90
41720;DHT22;27405;53.316;-6.294;2022-09-06T06:53:44;16.10;99.90
41720;DHT22;27405;53.316;-6.294;2022-09-06T06:58:41;16.10;99.90
41720;DHT22;27405;53.316;-6.294;2022-09-06T07:01:07;16.10;99.90
41720;DHT22;27405;53.316;-6.294;2022-09-06T07:03:34;16.20;99.90
41720;DHT22;27405;53.316;-6.294;2022-09-06T07:06:01;16.20;99.90
41720;DHT22;27405;53.316;-6.294;2022-09-06T07:08:26;16.30;99.90
41720;DHT22;27405;53.316;-6.294;2022-09-06T07:10:52;16.30;99.90
41720;DHT22;27405;53.316;-6.294;2022-09-06T07:13:18;16.30;99.90
41720;DHT22;27405;53.316;-6.294;2022-09-06T07:15:43;16.30;99.90
41720;DHT22;27405;53.316;-6.294;2022-09-06T07:18:09;16.40;99.90
41720;DHT22;27405;53.316;-6.294;2022-09-06T07:20:35;16.40;99.90
41720;DHT22;27405;53.316;-6.294;2022-09-06T07:23:02;16.40;99.90
41720;DHT22;27405;53.316;-6.294;2022-09-06T07:25:31;16.40;99.90
41720;DHT22;27405;53.316;-6.294;2022-09-06T07:28:01;16.40;99.90
41720;DHT22;27405;53.316;-6.294;2022-09-06T07:30:32;16.40;99.90
41720;DHT22;27405;53.316;-6.294;2022-09-06T07:32:58;16.40;99.90
41720;DHT22;27405;53.316;-6.294;2022-09-06T07:35:25;16.50;99.90
41720;DHT22;27405;53.316;-6.294;2022-09-06T07:37:56;16.50;99.90
41720;DHT22;27405;53.316;-6.294;2022-09-06T07:40:23;16.50;99.90
41720;DHT22;27405;53.316;-6.294;2022-09-06T07:42:49;16.60;99.90
41720;DHT22;27405;53.316;-6.294;2022-09-06T07:45:15;16.60;99.90
41720;DHT22;27405;53.316;-6.294;2022-09-06T07:47:41;16.70;99.90
41720;DHT22;27405;53.316;-6.294;2022-09-06T07:50:07;16.70;99.90
41720;DHT22;27405;53.316;-6.294;2022-09-06T07:52:33;16.70;99.90
41720;DHT22;27405;53.316;-6.294;2022-09-06T07:54:59;16.70;99.90
41720;DHT22;27405;53.316;-6.294;2022-09-06T07:57:24;16.80;99.90
41720;DHT22;27405;53.316;-6.294;2022-09-06T07:59:50;16.80;99.90
41720;DHT22;27405;53.316;-6.294;2022-09-06T08:02:16;16.80;99.90
41720;DHT22;27405;53.316;-6.294;2022-09-06T08:04:43;16.90;99.90
41720;DHT22;27405;53.316;-6.294;2022-09-06T08:07:09;16.90;99.90
41720;DHT22;27405;53.316;-6.294;2022-09-06T08:09:35;17.00;99.90
41720;DHT22;27405;53.316;-6.294;2022-09-06T08:12:02;17.10;99.90
41720;DHT22;27405;53.316;-6.294;2022-09-06T08:14:34;17.10;99.90
41720;DHT22;27405;53.316;-6.294;2022-09-06T08:17:00;17.20;99.90
41720;DHT22;27405;53.316;-6.294;2022-09-06T08:19:25;17.20;99.90
41720;DHT22;27405;53.316;-6.294;2022-09-06T08:21:53;17.20;99.90
41720;DHT22;27405;53.316;-6.294;2022-09-06T08:24:19;17.20;99.90
41720;DHT22;27405;53.316;-6.294;2022-09-06T08:26:45;17.20;99.90
41720;DHT22;27405;53.316;-6.294;2022-09-06T08:29:11;17.30;99.90
41720;DHT22;27405;53.316;-6.294;2022-09-06T08:31:39;17.30;99.90
41720;DHT22;27405;53.316;-6.294;2022-09-06T08:34:06;17.30;99.90
41720;DHT22;27405;53.316;-6.294;2022-09-06T08:36:32;17.40;99.90
41720;DHT22;27405;53.316;-6.294;2022-09-06T08:38:59;17.40;99.90
41720;DHT22;27405;53.316;-6.294;2022-09-06T08:43:59;17.50;99.90
41720;DHT22;27405;53.316;-6.294;2022-09-06T08:49:11;17.50;99.90
41720;DHT22;27405;53.316;-6.294;2022-09-06T08:54:27;17.60;99.90
41720;DHT22;27405;53.316;-6.294;2022-09-06T08:57:19;17.70;99.90
41720;DHT22;27405;53.316;-6.294;2022-09-06T08:59:47;17.70;99.90
41720;DHT22;27405;53.316;-6.294;2022-09-06T09:02:19;17.80;99.90
41720;DHT22;27405;53.316;-6.294;2022-09-06T09:04:56;17.90;99.90
41720;DHT22;27405;53.316;-6.294;2022-09-06T09:07:42;17.90;99.90
41720;DHT22;27405;53.316;-6.294;2022-09-06T09:10:16;17.90;99.90
41720;DHT22;27405;53.316;-6.294;2022-09-06T09:12:45;17.90;99.90
41720;DHT22;27405;53.316;-6.294;2022-09-06T09:15:14;17.90;99.90
41720;DHT22;27405;53.316;-6.294;2022-09-06T09:17:41;17.90;99.90
41720;DHT22;27405;53.316;-6.294;2022-09-06T09:20:07;17.90;99.90
41720;DHT22;27405;53.316;-6.294;2022-09-06T09:22:34;17.90;99.90
41720;DHT22;27405;53.316;-6.294;2022-09-06T09:25:01;17.90;99.90
41720;DHT22;27405;53.316;-6.294;2022-09-06T09:27:28;18.00;99.90
41720;DHT22;27405;53.316;-6.294;2022-09-06T09:32:36;18.10;99.90
41720;DHT22;27405;53.316;-6.294;2022-09-06T09:35:17;18.10;99.90
41720;DHT22;27405;53.316;-6.294;2022-09-06T09:37:44;18.10;99.90
41720;DHT22;27405;53.316;-6.294;2022-09-06T09:42:54;18.10;99.90
41720;DHT22;27405;53.316;-6.294;2022-09-06T09:45:30;18.00;99.90
41720;DHT22;27405;53.316;-6.294;2022-09-06T09:47:56;17.90;99.90
41720;DHT22;27405;53.316;-6.294;2022-09-06T09:50:30;17.90;99.90
41720;DHT22;27405;53.316;-6.294;2022-09-06T09:53:08;17.80;99.90
41720;DHT22;27405;53.316;-6.294;2022-09-06T09:55:35;17.80;99.90
41720;DHT22;27405;53.316;-6.294;2022-09-06T09:58:01;17.80;99.90
41720;DHT22;27405;53.316;-6.294;2022-09-06T10:00:37;17.80;99.90
41720;DHT22;27405;53.316;-6.294;2022-09-06T10:03:28;17.90;99.90
41720;DHT22;27405;53.316;-6.294;2022-09-06T10:05:56;18.00;99.90
41720;DHT22;27405;53.316;-6.294;2022-09-06T10:08:25;18.10;99.90
41720;DHT22;27405;53.316;-6.294;2022-09-06T10:10:51;18.20;99.90
41720;DHT22;27405;53.316;-6.294;2022-09-06T10:13:28;18.40;99.90
41720;DHT22;27405;53.316;-6.294;2022-09-06T10:15:56;18.50;99.90
41720;DHT22;27405;53.316;-6.294;2022-09-06T10:18:39;18.60;99.90
41720;DHT22;27405;53.316;-6.294;2022-09-06T10:21:10;18.70;99.90
41720;DHT22;27405;53.316;-6.294;2022-09-06T10:26:55;18.80;99.90
41720;DHT22;27405;53.316;-6.294;2022-09-06T10:32:09;18.90;99.90
41720;DHT22;27405;53.316;-6.294;2022-09-06T10:40:31;18.90;99.90
41720;DHT22;27405;53.316;-6.294;2022-09-06T10:42:59;18.90;99.90
41720;DHT22;27405;53.316;-6.294;2022-09-06T10:48:20;18.50;99.90
41720;DHT22;27405;53.316;-6.294;2022-09-06T10:53:45;18.20;99.90
41720;DHT22;27405;53.316;-6.294;2022-09-06T10:59:28;18.20;99.90
41720;DHT22;27405;53.316;-6.294;2022-09-06T11:04:44;18.00;99.90
41720;DHT22;27405;53.316;-6.294;2022-09-06T11:09:48;18.00;99.90
41720;DHT22;27405;53.316;-6.294;2022-09-06T11:12:23;18.10;99.90
41720;DHT22;27405;53.316;-6.294;2022-09-06T11:14:51;18.20;99.90
41720;DHT22;27405;53.316;-6.294;2022-09-06T11:19:49;18.20;99.90
41720;DHT22;27405;53.316;-6.294;2022-09-06T11:27:52;18.20;99.90
41720;DHT22;27405;53.316;-6.294;2022-09-06T11:30:19;18.20;99.90
41720;DHT22;27405;53.316;-6.294;2022-09-06T11:32:48;18.10;99.90
41720;DHT22;27405;53.316;-6.294;2022-09-06T11:38:00;18.00;99.90
41720;DHT22;27405;53.316;-6.294;2022-09-06T11:40:34;17.90;99.90
41720;DHT22;27405;53.316;-6.294;2022-09-06T11:45:59;17.80;99.90
41720;DHT22;27405;53.316;-6.294;2022-09-06T11:53:21;17.70;99.90
41720;DHT22;27405;53.316;-6.294;2022-09-06T11:55:50;17.70;99.90
41720;DHT22;27405;53.316;-6.294;2022-09-06T12:00:42;17.50;99.90
41720;DHT22;27405;53.316;-6.294;2022-09-06T12:03:10;17.40;99.90
41720;DHT22;27405;53.316;-6.294;2022-09-06T12:06:22;17.30;99.90
41720;DHT22;27405;53.316;-6.294;2022-09-06T12:08:52;17.20;99.90
41720;DHT22;27405;53.316;-6.294;2022-09-06T12:13:55;17.00;99.90
41720;DHT22;27405;53.316;-6.294;2022-09-06T12:16:21;17.00;99.90
41720;DHT22;27405;53.316;-6.294;2022-09-06T12:21:33;16.80;99.90
41720;DHT22;27405;53.316;-6.294;2022-09-06T12:23:59;16.80;99.90
41720;DHT22;27405;53.316;-6.294;2022-09-06T12:26:45;16.80;99.90
41720;DHT22;27405;53.316;-6.294;2022-09-06T12:29:12;16.70;99.90
41720;DHT22;27405;53.316;-6.294;2022-09-06T12:31:43;16.70;99.90
41720;DHT22;27405;53.316;-6.294;2022-09-06T12:34:21;16.70;99.90
41720;DHT22;27405;53.316;-6.294;2022-09-06T12:36:59;16.60;99.90
41720;DHT22;27405;53.316;-6.294;2022-09-06T12:39:25;16.60;99.90
41720;DHT22;27405;53.316;-6.294;2022-09-06T12:42:01;16.60;99.90
41720;DHT22;27405;53.316;-6.294;2022-09-06T12:44:34;16.60;99.90
41720;DHT22;27405;53.316;-6.294;2022-09-06T12:47:26;16.60;99.90
41720;DHT22;27405;53.316;-6.294;2022-09-06T12:50:25;16.70;99.90
41720;DHT22;27405;53.316;-6.294;2022-09-06T12:52:57;16.70;99.90
41720;DHT22;27405;53.316;-6.294;2022-09-06T12:55:28;16.70;99.90
41720;DHT22;27405;53.316;-6.294;2022-09-06T12:57:58;16.80;99.90
41720;DHT22;27405;53.316;-6.294;2022-09-06T13:05:39;17.10;99.90
41720;DHT22;27405;53.316;-6.294;2022-09-06T13:10:50;17.30;99.90
41720;DHT22;27405;53.316;-6.294;2022-09-06T13:13:22;17.40;99.90
41720;DHT22;27405;53.316;-6.294;2022-09-06T13:15:49;17.50;99.90
41720;DHT22;27405;53.316;-6.294;2022-09-06T13:18:30;17.60;99.90
41720;DHT22;27405;53.316;-6.294;2022-09-06T13:21:01;17.70;99.90
41720;DHT22;27405;53.316;-6.294;2022-09-06T13:23:28;17.80;99.90
41720;DHT22;27405;53.316;-6.294;2022-09-06T13:25:54;17.80;99.90
41720;DHT22;27405;53.316;-6.294;2022-09-06T13:28:31;17.90;99.90
41720;DHT22;27405;53.316;-6.294;2022-09-06T13:33:41;18.00;99.90
41720;DHT22;27405;53.316;-6.294;2022-09-06T13:38:39;18.20;99.90
41720;DHT22;27405;53.316;-6.294;2022-09-06T13:41:31;18.30;99.90
41720;DHT22;27405;53.316;-6.294;2022-09-06T13:44:06;18.40;99.90
41720;DHT22;27405;53.316;-6.294;2022-09-06T13:46:41;18.50;99.90
41720;DHT22;27405;53.316;-6.294;2022-09-06T13:49:07;18.50;99.90
41720;DHT22;27405;53.316;-6.294;2022-09-06T13:51:33;18.50;99.90
41720;DHT22;27405;53.316;-6.294;2022-09-06T13:54:07;18.50;99.90
41720;DHT22;27405;53.316;-6.294;2022-09-06T13:56:34;18.60;99.90
41720;DHT22;27405;53.316;-6.294;2022-09-06T13:59:00;18.60;99.90
41720;DHT22;27405;53.316;-6.294;2022-09-06T14:01:25;18.60;99.90
41720;DHT22;27405;53.316;-6.294;2022-09-06T14:03:51;18.60;99.90
41720;DHT22;27405;53.316;-6.294;2022-09-06T14:06:17;18.60;99.90
41720;DHT22;27405;53.316;-6.294;2022-09-06T14:08:43;18.60;99.90
41720;DHT22;27405;53.316;-6.294;2022-09-06T14:11:09;18.70;99.90
41720;DHT22;27405;53.316;-6.294;2022-09-06T14:13:34;18.70;99.90
41720;DHT22;27405;53.316;-6.294;2022-09-06T14:16:00;18.60;99.90
41720;DHT22;27405;53.316;-6.294;2022-09-06T14:18:26;18.50;99.90
41720;DHT22;27405;53.316;-6.294;2022-09-06T14:20:54;18.50;99.90
41720;DHT22;27405;53.316;-6.294;2022-09-06T14:23:20;18.50;99.90
41720;DHT22;27405;53.316;-6.294;2022-09-06T14:25:46;18.50;99.90
41720;DHT22;27405;53.316;-6.294;2022-09-06T14:28:12;18.40;99.90
41720;DHT22;27405;53.316;-6.294;2022-09-06T14:30:38;18.40;99.90
41720;DHT22;27405;53.316;-6.294;2022-09-06T14:33:04;18.40;99.90
41720;DHT22;27405;53.316;-6.294;2022-09-06T14:35:32;18.30;99.90
41720;DHT22;27405;53.316;-6.294;2022-09-06T14:37:58;18.20;99.90
41720;DHT22;27405;53.316;-6.294;2022-09-06T14:40:25;18.20;99.90
41720;DHT22;27405;53.316;-6.294;2022-09-06T14:42:50;18.20;99.90
41720;DHT22;27405;53.316;-6.294;2022-09-06T14:45:17;18.20;99.90
41720;DHT22;27405;53.316;-6.294;2022-09-06T14:47:44;18.30;99.90
41720;DHT22;27405;53.316;-6.294;2022-09-06T14:50:10;18.40;99.90
41720;DHT22;27405;53.316;-6.294;2022-09-06T14:52:35;18.70;99.90
41720;DHT22;27405;53.316;-6.294;2022-09-06T14:55:01;18.80;99.90
41720;DHT22;27405;53.316;-6.294;2022-09-06T14:57:27;18.90;99.90
41720;DHT22;27405;53.316;-6.294;2022-09-06T14:59:54;19.00;99.90
41720;DHT22;27405;53.316;-6.294;2022-09-06T15:02:20;18.90;99.90
41720;DHT22;27405;53.316;-6.294;2022-09-06T15:04:46;19.00;99.90
41720;DHT22;27405;53.316;-6.294;2022-09-06T15:07:11;18.90;99.90
41720;DHT22;27405;53.316;-6.294;2022-09-06T15:09:38;18.90;99.90
41720;DHT22;27405;53.316;-6.294;2022-09-06T15:12:03;18.90;99.90
41720;DHT22;27405;53.316;-6.294;2022-09-06T15:14:30;19.00;99.90
41720;DHT22;27405;53.316;-6.294;2022-09-06T15:16:56;19.00;99.90
41720;DHT22;27405;53.316;-6.294;2022-09-06T15:19:26;19.00;99.90
41720;DHT22;27405;53.316;-6.294;2022-09-06T15:21:53;19.00;99.90
41720;DHT22;27405;53.316;-6.294;2022-09-06T15:24:19;19.00;99.90
41720;DHT22;27405;53.316;-6.294;2022-09-06T15:26:46;19.00;99.90
41720;DHT22;27405;53.316;-6.294;2022-09-06T15:29:12;19.00;99.90
41720;DHT22;27405;53.316;-6.294;2022-09-06T15:31:39;19.00;99.90
41720;DHT22;27405;53.316;-6.294;2022-09-06T15:34:06;18.90;99.90
41720;DHT22;27405;53.316;-6.294;2022-09-06T15:36:33;18.90;99.90
41720;DHT22;27405;53.316;-6.294;2022-09-06T15:39:00;18.80;99.90
41720;DHT22;27405;53.316;-6.294;2022-09-06T15:41:29;18.70;99.90
41720;DHT22;27405;53.316;-6.294;2022-09-06T15:44:00;18.60;99.90
41720;DHT22;27405;53.316;-6.294;2022-09-06T15:46:45;18.60;99.90
41720;DHT22;27405;53.316;-6.294;2022-09-06T15:49:15;18.60;99.90
41720;DHT22;27405;53.316;-6.294;2022-09-06T15:51:41;18.60;99.90
41720;DHT22;27405;53.316;-6.294;2022-09-06T15:54:08;18.60;99.90
41720;DHT22;27405;53.316;-6.294;2022-09-06T15:56:33;18.50;99.90
41720;DHT22;27405;53.316;-6.294;2022-09-06T15:58:59;18.50;99.90
41720;DHT22;27405;53.316;-6.294;2022-09-06T16:01:25;18.40;99.90
41720;DHT22;27405;53.316;-6.294;2022-09-06T16:03:56;18.30;99.90
41720;DHT22;27405;53.316;-6.294;2022-09-06T16:06:29;18.30;99.90
41720;DHT22;27405;53.316;-6.294;2022-09-06T16:09:02;18.30;99.90
41720;DHT22;27405;53.316;-6.294;2022-09-06T16:11:29;18.30;99.90
41720;DHT22;27405;53.316;-6.294;2022-09-06T16:13:57;18.30;99.90
41720;DHT22;27405;53.316;-6.294;2022-09-06T16:16:23;18.30;99.90
41720;DHT22;27405;53.316;-6.294;2022-09-06T16:18:49;18.40;99.90
41720;DHT22;27405;53.316;-6.294;2022-09-06T16:21:22;18.40;99.90
41720;DHT22;27405;53.316;-6.294;2022-09-06T16:23:54;18.40;99.90
41720;DHT22;27405;53.316;-6.294;2022-09-06T16:26:21;18.50;99.90
41720;DHT22;27405;53.316;-6.294;2022-09-06T16:28:48;18.60;99.90
41720;DHT22;27405;53.316;-6.294;2022-09-06T16:31:14;18.60;99.90
41720;DHT22;27405;53.316;-6.294;2022-09-06T16:33:40;18.70;99.90
41720;DHT22;27405;53.316;-6.294;2022-09-06T16:36:07;18.60;99.90
41720;DHT22;27405;53.316;-6.294;2022-09-06T16:38:38;18.60;99.90
41720;DHT22;27405;53.316;-6.294;2022-09-06T16:43:34;18.40;99.90
41720;DHT22;27405;53.316;-6.294;2022-09-06T16:46:01;18.40;99.90
41720;DHT22;27405;53.316;-6.294;2022-09-06T16:48:29;18.30;99.90
41720;DHT22;27405;53.316;-6.294;2022-09-06T16:50:55;18.30;99.90
41720;DHT22;27405;53.316;-6.294;2022-09-06T16:53:21;18.20;99.90
41720;DHT22;27405;53.316;-6.294;2022-09-06T16:55:47;18.20;99.90
41720;DHT22;27405;53.316;-6.294;2022-09-06T16:58:13;18.10;99.90
41720;DHT22;27405;53.316;-6.294;2022-09-06T17:00:39;18.10;99.90
41720;DHT22;27405;53.316;-6.294;2022-09-06T17:03:06;18.00;99.90
41720;DHT22;27405;53.316;-6.294;2022-09-06T17:05:34;18.00;99.90
41720;DHT22;27405;53.316;-6.294;2022-09-06T17:08:00;17.90;99.90
41720;DHT22;27405;53.316;-6.294;2022-09-06T17:10:26;17.90;99.90
41720;DHT22;27405;53.316;-6.294;2022-09-06T17:12:52;17.90;99.90
41720;DHT22;27405;53.316;-6.294;2022-09-06T17:15:18;17.90;99.90